Time;durP1;ratioP1;P1;durP2;ratioP2;P2;SDS_P1;SDS_P2;PMS_P1;PMS_P2;Temp;Humidity;BMP_temperature;BMP_pressure;BME280_temperature;BME280_humidity;BME280_pressure;Samples;Min_cycle;Max_cycle;Signal;HPM_P1;HPM_P2
2023/06/26 00:08:18;;;;;;;9.40;6.40;;;;;;;15.33;66.12;98662.11;435970;1253;99233;-42
2023/06/26 00:18:25;;;;;;;8.30;6.80;;;;;;;15.28;66.27;98663.05;435993;1253;108422;-41
2023/06/26 00:28:32;;;;;;;10.50;7.10;;;;;;;15.21;66.64;98661.06;435989;1254;98482;-42
2023/06/26 00:38:40;;;;;;;7.20;5.70;;;;;;;15.09;66.63;98664.44;435948;1254;110879;-43
2023/06/26 00:48:49;;;;;;;8.60;6.10;;;;;;;15.00;66.94;98659.77;436023;1254;108233;-41
2023/06/26 00:58:56;;;;;;;9.10;6.90;;;;;;;14.93;67.08;98657.81;436024;1251;99106;-41
2023/06/26 01:09:04;;;;;;;8.40;6.50;;;;;;;14.93;67.23;98652.64;435967;1254;108530;-40
2023/06/26 01:19:19;;;;;;;8.90;6.20;;;;;;;14.82;67.21;98643.08;436902;1253;99340;-41
2023/06/26 01:29:29;;;;;;;7.70;5.60;;;;;;;14.73;67.27;98638.30;436321;1248;111311;-43
2023/06/26 01:39:36;;;;;;;8.00;6.30;;;;;;;14.64;67.42;98633.61;436308;1261;108444;-42
2023/06/26 01:49:43;;;;;;;12.80;7.70;;;;;;;14.52;67.64;98629.26;436530;1255;99196;-41
2023/06/26 01:59:51;;;;;;;8.70;6.30;;;;;;;14.41;67.62;98627.23;436361;1254;108884;-42
2023/06/26 02:09:58;;;;;;;11.80;6.90;;;;;;;14.24;67.82;98623.20;436234;1248;97935;-42
2023/06/26 02:20:09;;;;;;;14.00;8.90;;;;;;;14.20;68.35;98622.33;436421;1253;111544;-42
2023/06/26 02:30:16;;;;;;;14.80;9.70;;;;;;;14.11;68.75;98616.91;436394;1248;105863;-41
2023/06/26 02:40:23;;;;;;;16.40;11.00;;;;;;;13.93;69.40;98620.05;436346;1253;99311;-42
2023/06/26 02:50:31;;;;;;;12.20;9.90;;;;;;;13.84;69.77;98621.98;436290;1252;108576;-42
2023/06/26 03:00:41;;;;;;;14.60;9.80;;;;;;;13.89;69.94;98625.96;436295;1248;99231;-43
2023/06/26 03:10:48;;;;;;;13.90;10.00;;;;;;;14.05;70.27;98625.11;436357;1253;111571;-41
2023/06/26 03:20:57;;;;;;;14.60;8.90;;;;;;;15.59;70.16;98623.83;436320;1247;107371;-42
2023/06/26 03:31:03;;;;;;;12.50;9.20;;;;;;;17.84;68.45;98613.49;435889;1254;476549;-42
2023/06/26 03:41:10;;;;;;;9.50;8.60;;;;;;;19.60;66.56;98610.73;436398;1250;108431;-42
2023/06/26 03:51:18;;;;;;;9.80;8.30;;;;;;;21.26;64.74;98614.16;436307;1254;99309;-43
2023/06/26 04:01:26;;;;;;;11.70;8.00;;;;;;;22.65;62.89;98609.34;436213;1248;111747;-41
2023/06/26 04:11:33;;;;;;;10.50;7.80;;;;;;;23.94;61.12;98607.19;436131;1253;107857;-42
2023/06/26 04:31:47;;;;;;;9.50;7.60;;;;;;;26.31;57.53;98608.27;436268;1248;107620;-41
2023/06/26 04:41:53;;;;;;;8.90;7.50;;;;;;;26.45;56.37;98609.09;436320;1248;98791;-41
2023/06/26 04:52:01;;;;;;;8.30;6.80;;;;;;;26.92;55.94;98611.39;436329;1248;111940;-41
2023/06/26 05:02:06;;;;;;;9.40;7.90;;;;;;;27.00;54.81;98615.45;436314;1254;107282;-42
2023/06/26 05:22:18;;;;;;;7.40;6.80;;;;;;;27.58;52.63;98614.98;436299;1253;107731;-42
2023/06/26 05:32:26;;;;;;;8.60;6.60;;;;;;;27.80;51.69;98609.73;436274;1248;99262;-44
2023/06/26 05:42:33;;;;;;;11.60;6.90;;;;;;;28.17;50.10;98606.75;436406;1248;110122;-42
2023/06/26 05:52:42;;;;;;;9.60;6.70;;;;;;;27.99;49.50;98614.94;436341;1248;107827;-43
2023/06/26 06:02:49;;;;;;;10.20;7.40;;;;;;;28.00;48.09;98611.40;436394;1254;99314;-43
2023/06/26 06:12:56;;;;;;;10.70;6.50;;;;;;;28.38;47.75;98605.01;436209;1253;108928;-42
2023/06/26 06:23:04;;;;;;;8.70;7.00;;;;;;;28.55;46.65;98603.98;436395;1247;99095;-42
2023/06/26 06:33:11;;;;;;;8.20;7.50;;;;;;;28.78;46.55;98602.13;436268;1248;110962;-44
2023/06/26 06:43:19;;;;;;;9.00;7.30;;;;;;;28.93;45.07;98601.56;436063;1248;108402;-42
2023/06/26 06:53:26;;;;;;;7.60;6.10;;;;;;;28.66;44.67;98601.17;436374;1251;99202;-42
2023/06/26 07:03:33;;;;;;;7.40;6.50;;;;;;;29.27;44.50;98612.49;436361;1250;107655;-42
2023/06/26 07:13:41;;;;;;;7.80;7.00;;;;;;;29.15;43.53;98611.35;436307;1255;99458;-42
2023/06/26 07:23:48;;;;;;;7.50;6.20;;;;;;;29.17;43.24;98605.51;436361;1253;112079;-43
2023/06/26 07:33:56;;;;;;;7.30;6.00;;;;;;;29.34;42.88;98599.73;436418;1253;107582;-43
2023/06/26 07:44:03;;;;;;;7.20;5.90;;;;;;;29.34;42.43;98600.92;436384;1253;99279;-43
2023/06/26 07:54:10;;;;;;;6.40;5.70;;;;;;;29.19;42.06;98601.80;436329;1252;107463;-42
2023/06/26 08:04:18;;;;;;;7.80;5.40;;;;;;;29.32;41.57;98597.21;436315;1253;99218;-41
2023/06/26 08:14:26;;;;;;;6.90;6.20;;;;;;;29.14;41.29;98596.02;436342;1252;112183;-43
2023/06/26 08:24:33;;;;;;;6.50;4.90;;;;;;;29.59;40.67;98589.75;436313;1252;107992;-41
2023/06/26 08:34:41;;;;;;;10.60;5.60;;;;;;;29.30;40.40;98588.61;436289;1253;99794;-44
2023/06/26 08:44:48;;;;;;;9.10;5.00;;;;;;;29.77;40.01;98588.11;436271;1254;108671;-41
2023/06/26 08:55:06;;;;;;;7.20;5.60;;;;;;;29.38;39.91;98591.12;436411;1253;99247;-42
2023/06/26 09:05:13;;;;;;;6.60;4.20;;;;;;;29.77;38.70;98576.50;436347;1249;111437;-43
2023/06/26 09:15:21;;;;;;;5.30;4.90;;;;;;;29.90;37.94;98578.34;436395;1251;108712;-43
2023/06/26 09:25:29;;;;;;;5.40;4.40;;;;;;;29.73;37.54;98575.86;436463;1248;99213;-44
2023/06/26 09:35:36;;;;;;;5.30;4.80;;;;;;;29.64;36.87;98566.59;436412;1250;107248;-43
2023/06/26 09:45:44;;;;;;;7.40;4.70;;;;;;;29.52;36.63;98564.53;436369;1254;99304;-41
2023/06/26 09:55:51;;;;;;;4.80;4.40;;;;;;;28.58;37.01;98562.89;436327;1252;112983;-43
2023/06/26 10:06:01;;;;;;;6.90;4.60;;;;;;;28.90;37.02;98556.55;436351;1247;107958;-43
2023/06/26 10:16:11;;;;;;;6.40;5.00;;;;;;;28.54;36.47;98550.59;436364;1253;99320;-41
2023/06/26 10:26:20;;;;;;;5.10;4.60;;;;;;;27.90;37.27;98538.73;436420;1252;108387;-41
2023/06/26 10:36:32;;;;;;;7.10;5.50;;;;;;;27.87;37.55;98522.45;436521;1249;98827;-41
2023/06/26 10:46:54;;;;;;;7.60;4.70;;;;;;;28.20;37.82;98513.02;436419;1252;110441;-43
2023/06/26 10:57:02;;;;;;;4.70;4.30;;;;;;;28.94;38.04;98514.64;436548;1252;107856;-43
2023/06/26 11:07:25;;;;;;;5.00;4.50;;;;;;;29.09;36.80;98502.80;436405;1253;99222;-41
2023/06/26 11:17:32;;;;;;;4.60;4.20;;;;;;;28.74;36.19;98490.67;436310;1252;108720;-46
2023/06/26 11:27:39;;;;;;;8.50;4.40;;;;;;;28.18;36.35;98487.16;436380;1248;97993;-42
2023/06/26 11:47:55;;;;;;;5.70;4.80;;;;;;;27.88;37.32;98475.44;436370;1253;109499;-42
2023/06/26 11:58:01;;;;;;;4.60;4.20;;;;;;;28.44;37.61;98473.45;436442;1261;99104;-46
2023/06/26 12:08:09;;;;;;;4.50;3.80;;;;;;;28.96;36.86;98466.48;436450;1248;107477;-42
2023/06/26 12:18:17;;;;;;;5.40;4.10;;;;;;;29.17;36.53;98462.28;436386;1252;99228;-42
2023/06/26 12:28:25;;;;;;;5.20;4.20;;;;;;;29.79;36.59;98447.43;436369;1253;112250;-42
2023/06/26 12:38:34;;;;;;;5.20;4.40;;;;;;;30.24;35.91;98440.16;436434;1252;107558;-42
2023/06/26 12:58:44;;;;;;;4.30;3.90;;;;;;;29.94;34.65;98425.83;436281;1253;107539;-41
2023/06/26 13:08:50;;;;;;;8.70;4.30;;;;;;;29.76;34.34;98415.70;436359;1248;98843;-43
2023/06/26 13:18:59;;;;;;;4.70;4.30;;;;;;;29.69;34.51;98405.36;436435;1253;111320;-42
2023/06/26 13:29:06;;;;;;;5.10;4.10;;;;;;;29.46;34.13;98399.95;436417;1253;107993;-44
2023/06/26 13:49:19;;;;;;;4.50;3.30;;;;;;;29.03;33.94;98384.03;436324;1251;108227;-42
2023/06/26 13:59:27;;;;;;;5.30;4.10;;;;;;;28.82;34.03;98370.25;436244;1248;99263;-41
2023/06/26 14:09:34;;;;;;;4.80;3.50;;;;;;;28.75;33.87;98358.84;436474;1252;111506;-43
2023/06/26 14:19:41;;;;;;;4.60;4.20;;;;;;;28.77;33.84;98347.93;436447;1253;109293;-41
2023/06/26 14:29:49;;;;;;;5.30;4.20;;;;;;;28.93;34.12;98339.50;436556;1253;99212;-45
2023/06/26 14:39:56;;;;;;;7.90;4.30;;;;;;;28.62;34.46;98318.77;436309;1253;108553;-43
2023/06/26 14:50:05;;;;;;;5.70;4.30;;;;;;;28.79;34.32;98306.75;436383;1248;97984;-43
2023/06/26 15:00:14;;;;;;;5.10;4.60;;;;;;;28.61;34.41;98295.75;436179;1253;112689;-42
2023/06/26 15:20:28;;;;;;;4.60;4.10;;;;;;;28.76;34.74;98275.77;436428;1253;99211;-43
2023/06/26 15:30:36;;;;;;;4.40;4.10;;;;;;;28.72;34.74;98277.56;436137;1247;296884;-42
2023/06/26 15:40:44;;;;;;;8.00;6.00;;;;;;;28.64;35.01;98268.45;436512;1248;99221;-42
2023/06/26 15:50:51;;;;;;;6.20;5.20;;;;;;;28.67;35.18;98263.39;436588;1253;112093;-42
2023/06/26 16:00:58;;;;;;;6.10;5.10;;;;;;;28.51;35.35;98246.04;436356;1252;108535;-42
2023/06/26 16:11:06;;;;;;;4.60;4.20;;;;;;;28.33;35.45;98229.72;436462;1252;99212;-42
2023/06/26 16:21:14;;;;;;;6.30;5.20;;;;;;;28.24;36.07;98220.20;436338;1247;108232;-42
2023/06/26 16:31:22;;;;;;;5.90;4.80;;;;;;;28.18;36.19;98217.89;436419;1251;98284;-42
2023/06/26 16:41:27;;;;;;;;;;;;;;;27.59;36.52;98224.37;436407;1254;111341;-42
2023/06/26 16:51:34;;;;;;;8.50;4.90;;;;;;;27.37;37.28;98225.90;436399;1254;108339;-41
2023/06/26 17:01:41;;;;;;;6.50;4.80;;;;;;;27.40;37.42;98219.08;436470;1253;99224;-40
2023/06/26 17:11:48;;;;;;;9.40;5.20;;;;;;;27.44;37.82;98217.62;436302;1251;108389;-41
2023/06/26 17:21:55;;;;;;;5.20;4.80;;;;;;;27.28;38.01;98213.33;436411;1251;99924;-41
2023/06/26 17:32:02;;;;;;;7.70;4.70;;;;;;;26.90;38.39;98213.65;436391;1253;113264;-41
2023/06/26 17:42:10;;;;;;;8.50;6.60;;;;;;;26.69;38.87;98216.66;436402;1253;107840;-42
2023/06/26 17:52:18;;;;;;;8.10;7.20;;;;;;;26.40;39.51;98213.89;436514;1248;98569;-42
2023/06/26 18:02:25;;;;;;;10.00;6.80;;;;;;;26.11;40.25;98204.56;436360;1253;109390;-41
2023/06/26 18:12:33;;;;;;;9.70;6.80;;;;;;;25.78;41.26;98192.80;436377;1254;97982;-46
2023/06/26 18:22:40;;;;;;;10.00;6.90;;;;;;;25.21;42.29;98193.91;436263;1252;111643;-42
2023/06/26 18:32:48;;;;;;;9.00;6.30;;;;;;;24.72;43.29;98196.05;436304;1253;108958;-41
2023/06/26 18:42:55;;;;;;;7.90;5.90;;;;;;;24.28;44.23;98188.98;436372;1253;99278;-43
2023/06/26 18:53:02;;;;;;;12.00;7.60;;;;;;;23.88;45.08;98187.45;436203;1251;108288;-43
2023/06/26 19:03:10;;;;;;;13.70;7.40;;;;;;;23.50;45.98;98182.57;436412;1254;99212;-42
2023/06/26 19:13:17;;;;;;;12.20;8.80;;;;;;;23.14;46.83;98174.34;436412;1248;112087;-43
2023/06/26 19:23:24;;;;;;;14.80;10.00;;;;;;;22.70;47.76;98170.64;436180;1251;108370;-45
2023/06/26 19:43:38;;;;;;;12.40;9.40;;;;;;;22.07;49.23;98163.46;436340;1261;107558;-43
2023/06/26 19:53:46;;;;;;;13.50;9.40;;;;;;;21.91;49.78;98172.74;436310;1251;99222;-42
2023/06/26 20:03:57;;;;;;;14.00;8.20;;;;;;;21.79;50.12;98154.36;436458;1248;110187;-42
2023/06/26 20:14:04;;;;;;;12.80;7.80;;;;;;;21.65;50.45;98145.48;436441;1251;108568;-43
2023/06/26 20:24:10;;;;;;;;;;;;;;;21.50;50.80;98146.01;436323;1253;99240;-43
2023/06/26 20:34:18;;;;;;;11.20;7.60;;;;;;;21.43;51.11;98151.30;436367;1253;107842;-41
2023/06/26 20:44:26;;;;;;;11.70;7.70;;;;;;;21.47;51.15;98160.13;436385;1252;99346;-41
2023/06/26 20:54:34;;;;;;;10.20;8.00;;;;;;;21.25;51.33;98160.93;436353;1254;111247;-42
2023/06/26 21:04:41;;;;;;;12.90;7.50;;;;;;;21.00;51.55;98149.16;436338;1248;107204;-42
2023/06/26 21:14:48;;;;;;;6.80;6.10;;;;;;;20.82;52.03;98147.05;436206;1261;98825;-41
2023/06/26 21:24:56;;;;;;;7.70;6.60;;;;;;;20.72;52.75;98134.83;436192;1253;108633;-42
2023/06/26 21:35:03;;;;;;;10.70;7.90;;;;;;;20.71;52.88;98131.91;436311;1254;99355;-41
2023/06/26 21:45:11;;;;;;;10.80;7.70;;;;;;;20.67;53.15;98123.80;436458;1261;112267;-41
2023/06/26 21:55:18;;;;;;;10.40;7.80;;;;;;;20.63;53.51;98111.40;436263;1255;108677;-43
2023/06/26 22:05:26;;;;;;;8.90;7.90;;;;;;;20.60;53.91;98103.41;436279;1253;99173;-41
2023/06/26 22:15:33;;;;;;;14.70;8.40;;;;;;;20.55;54.36;98100.77;436373;1253;108717;-42
2023/06/26 22:25:41;;;;;;;11.40;5.90;;;;;;;20.64;55.61;98222.89;436327;1254;99221;-40
2023/06/26 22:35:48;;;;;;;11.60;5.60;;;;;;;20.10;58.12;98248.33;436275;1254;110719;-41
2023/06/26 22:45:54;;;;;;;5.70;5.00;;;;;;;19.46;60.33;98244.11;436369;1248;108562;-42
2023/06/26 22:56:01;;;;;;;10.30;5.10;;;;;;;19.18;61.94;98224.89;436345;1247;98807;-42
2023/06/26 23:06:09;;;;;;;7.60;4.70;;;;;;;19.01;63.26;98201.17;436263;1248;108520;-44
2023/06/26 23:16:16;;;;;;;9.50;4.80;;;;;;;18.96;63.84;98190.92;436320;1254;98817;-44
2023/06/26 23:26:23;;;;;;;5.90;4.60;;;;;;;18.68;64.82;98148.58;436416;1254;111487;-43
2023/06/26 23:36:37;;;;;;;9.30;4.80;;;;;;;18.63;65.98;98136.19;436101;1253;107207;-43
2023/06/26 23:46:45;;;;;;;8.40;4.80;;;;;;;18.56;66.75;98134.31;436283;1248;99215;-42
2023/06/26 23:56:52;;;;;;;7.00;5.40;;;;;;;18.61;67.78;98145.27;436194;1253;108055;-43
